createdAt,value
2022-12-25T00:01:39.261Z,3.83
2022-12-25T00:04:12.226Z,3.82
2022-12-25T00:06:44.782Z,3.84
2022-12-25T00:09:17.199Z,3.86
2022-12-25T00:11:49.570Z,3.82
2022-12-25T00:14:21.979Z,3.81
2022-12-25T00:16:54.344Z,3.80
2022-12-25T00:19:26.719Z,3.80
2022-12-25T00:21:59.171Z,3.80
2022-12-25T00:24:32.358Z,3.81
2022-12-25T00:27:04.938Z,3.80
2022-12-25T00:29:38.201Z,3.79
2022-12-25T00:32:10.707Z,3.79
2022-12-25T00:34:43.108Z,3.80
2022-12-25T00:37:15.531Z,3.80
2022-12-25T00:39:48.926Z,3.79
2022-12-25T00:42:21.364Z,3.81
2022-12-25T00:44:53.826Z,3.80
2022-12-25T00:47:26.454Z,3.78
2022-12-25T00:49:59.162Z,3.79
2022-12-25T00:52:31.563Z,3.80
2022-12-25T00:55:03.986Z,3.80
2022-12-25T00:57:36.639Z,3.83
2022-12-25T01:00:11.246Z,3.84
2022-12-25T01:02:43.700Z,3.85
2022-12-25T01:05:16.417Z,3.87
2022-12-25T01:07:48.669Z,3.87
2022-12-25T01:10:24.106Z,3.88
2022-12-25T01:12:56.457Z,3.92
2022-12-25T01:15:28.908Z,3.93
2022-12-25T01:18:07.281Z,3.91
2022-12-25T01:20:40.263Z,3.90
2022-12-25T01:23:12.912Z,3.93
2022-12-25T01:25:45.544Z,3.97
2022-12-25T01:28:18.426Z,4.00
2022-12-25T01:30:52.577Z,4.00
2022-12-25T01:33:25.092Z,4.00
2022-12-25T01:35:57.977Z,4.00
2022-12-25T01:38:30.352Z,3.99
2022-12-25T01:41:02.656Z,3.99
2022-12-25T01:43:36.071Z,3.98
2022-12-25T01:46:08.725Z,4.00
2022-12-25T01:48:41.870Z,4.00
2022-12-25T01:51:24.428Z,3.98
2022-12-25T01:54:00.803Z,3.96
2022-12-25T01:56:34.291Z,3.95
2022-12-25T01:59:09.451Z,3.95
2022-12-25T02:01:43.048Z,3.95
2022-12-25T02:04:23.218Z,3.96
2022-12-25T02:06:55.642Z,3.97
2022-12-25T02:09:27.990Z,3.99
2022-12-25T02:12:00.693Z,4.01
2022-12-25T02:14:38.020Z,4.03
2022-12-25T02:17:18.156Z,4.04
2022-12-25T02:20:11.755Z,4.03
2022-12-25T02:22:51.572Z,4.04
2022-12-25T02:25:44.133Z,4.05
2022-12-25T02:28:22.778Z,4.07
2022-12-25T02:30:59.958Z,4.06
2022-12-25T02:33:55.686Z,4.07
2022-12-25T02:36:35.091Z,4.08
2022-12-25T02:39:32.680Z,4.09
2022-12-25T02:42:08.611Z,4.10
2022-12-25T02:45:03.378Z,4.13
2022-12-25T02:47:55.047Z,4.13
2022-12-25T02:50:45.838Z,4.11
2022-12-25T02:53:35.907Z,4.09
2022-12-25T02:56:37.791Z,4.07
2022-12-25T02:59:28.735Z,4.05
2022-12-25T03:02:19.542Z,4.06
2022-12-25T03:05:14.176Z,4.07
2022-12-25T03:07:47.014Z,4.07
2022-12-25T03:10:38.864Z,4.09
2022-12-25T03:13:17.562Z,4.09
2022-12-25T03:16:09.295Z,4.09
2022-12-25T03:18:42.025Z,4.11
2022-12-25T03:21:32.340Z,4.11
2022-12-25T03:24:18.953Z,4.12
2022-12-25T03:26:57.528Z,4.11
2022-12-25T03:29:51.061Z,4.12
2022-12-25T03:32:35.212Z,4.12
2022-12-25T03:35:25.445Z,4.13
2022-12-25T03:38:31.618Z,4.15
2022-12-25T03:41:28.333Z,4.19
2022-12-25T03:44:26.974Z,4.20
2022-12-25T03:47:25.769Z,4.17
2022-12-25T03:50:23.747Z,4.15
2022-12-25T03:53:16.703Z,4.13
2022-12-25T03:56:07.412Z,4.12
2022-12-25T03:58:57.870Z,4.12
2022-12-25T04:01:48.293Z,4.13
2022-12-25T04:04:38.254Z,4.11
2022-12-25T04:07:28.499Z,4.12
2022-12-25T04:10:18.748Z,4.13
2022-12-25T04:13:10.345Z,4.16
2022-12-25T04:16:00.929Z,4.18
2022-12-25T04:18:50.949Z,4.18
2022-12-25T04:21:41.317Z,4.15
2022-12-25T04:24:31.743Z,4.15
2022-12-25T04:27:22.052Z,4.17
2022-12-25T04:30:12.075Z,4.18
2022-12-25T04:33:02.419Z,4.18
2022-12-25T04:35:52.708Z,4.15
2022-12-25T04:38:25.083Z,4.15
2022-12-25T04:40:57.707Z,4.15
2022-12-25T04:43:30.370Z,4.19
2022-12-25T04:46:04.239Z,4.21
2022-12-25T04:48:37.959Z,4.21
2022-12-25T04:51:18.972Z,4.20
2022-12-25T04:53:52.649Z,4.20
2022-12-25T04:56:25.286Z,4.19
2022-12-25T04:58:58.686Z,4.18
2022-12-25T05:01:31.243Z,4.21
2022-12-25T05:04:03.737Z,4.23
2022-12-25T05:06:36.290Z,4.23
2022-12-25T05:09:08.792Z,4.22
2022-12-25T05:11:41.214Z,4.20
2022-12-25T05:14:13.643Z,4.21
2022-12-25T05:16:46.189Z,4.21
2022-12-25T05:19:18.631Z,4.24
2022-12-25T05:21:50.893Z,4.25
2022-12-25T05:24:26.231Z,4.24
2022-12-25T05:26:58.677Z,4.27
2022-12-25T05:29:31.128Z,4.28
2022-12-25T05:32:03.725Z,4.29
2022-12-25T05:34:36.259Z,4.26
2022-12-25T05:37:08.640Z,4.26
2022-12-25T05:39:40.964Z,4.27
2022-12-25T05:42:13.411Z,4.27
2022-12-25T05:44:45.680Z,4.28
2022-12-25T05:47:18.149Z,4.27
2022-12-25T05:49:50.418Z,4.27
2022-12-25T05:52:22.717Z,4.27
2022-12-25T05:54:55.138Z,4.27
2022-12-25T05:57:29.127Z,4.28
2022-12-25T06:00:01.844Z,4.25
2022-12-25T06:02:35.825Z,4.23
2022-12-25T06:05:10.057Z,4.23
2022-12-25T06:07:42.305Z,4.24
2022-12-25T06:10:15.044Z,4.26
2022-12-25T06:12:47.588Z,4.25
2022-12-25T06:15:20.013Z,4.26
2022-12-25T06:17:52.335Z,4.25
2022-12-25T06:20:24.764Z,4.25
2022-12-25T06:22:57.106Z,4.25
2022-12-25T06:25:29.608Z,4.24
2022-12-25T06:28:01.900Z,4.25
2022-12-25T06:30:34.863Z,4.25
2022-12-25T06:33:07.273Z,4.28
2022-12-25T06:35:42.219Z,4.27
2022-12-25T06:38:14.570Z,4.25
2022-12-25T06:40:46.941Z,4.24
2022-12-25T06:43:19.315Z,4.25
2022-12-25T06:45:53.280Z,4.25
2022-12-25T06:48:25.836Z,4.28
2022-12-25T06:50:58.126Z,4.28
2022-12-25T06:53:37.084Z,4.30
2022-12-25T06:56:15.854Z,4.32
2022-12-25T06:58:49.258Z,4.34
2022-12-25T07:01:24.670Z,4.36
2022-12-25T07:03:59.798Z,4.35
2022-12-25T07:06:32.394Z,4.35
2022-12-25T07:09:04.983Z,4.37
2022-12-25T07:11:37.750Z,4.38
2022-12-25T07:14:20.282Z,4.41
2022-12-25T07:16:56.143Z,4.42
2022-12-25T07:19:28.606Z,4.39
2022-12-25T07:22:01.031Z,4.39
2022-12-25T07:24:33.383Z,4.38
2022-12-25T07:27:05.801Z,4.36
2022-12-25T07:29:38.155Z,4.35
2022-12-25T07:32:10.720Z,4.34
2022-12-25T07:34:43.333Z,4.34
2022-12-25T07:37:15.914Z,4.35
2022-12-25T07:39:48.336Z,4.34
2022-12-25T07:42:24.965Z,4.36
2022-12-25T07:45:00.117Z,4.36
2022-12-25T07:47:32.619Z,4.35
2022-12-25T07:50:05.419Z,4.36
2022-12-25T07:52:43.212Z,4.36
2022-12-25T07:55:16.164Z,4.33
2022-12-25T07:57:48.665Z,4.31
2022-12-25T08:00:29.711Z,4.29
2022-12-25T08:03:02.537Z,4.32
2022-12-25T08:05:36.640Z,4.30
2022-12-25T08:08:10.548Z,4.29
2022-12-25T08:10:48.341Z,4.29
2022-12-25T08:13:20.953Z,4.29
2022-12-25T08:15:58.279Z,4.32
2022-12-25T08:18:31.336Z,4.36
2022-12-25T08:21:07.675Z,4.36
2022-12-25T08:23:41.966Z,4.36
2022-12-25T08:26:17.053Z,4.37
2022-12-25T08:28:50.198Z,4.37
2022-12-25T08:31:24.919Z,4.37
2022-12-25T08:33:59.316Z,4.37
2022-12-25T08:36:32.099Z,4.38
2022-12-25T08:39:04.610Z,4.38
2022-12-25T08:41:37.154Z,4.39
2022-12-25T08:44:09.578Z,4.40
2022-12-25T08:46:42.061Z,4.38
2022-12-25T08:49:14.456Z,4.38
2022-12-25T08:51:48.076Z,4.39
2022-12-25T08:54:20.424Z,4.43
2022-12-25T08:56:56.136Z,4.44
2022-12-25T08:59:34.573Z,4.46
2022-12-25T09:02:07.041Z,4.48
2022-12-25T09:04:39.471Z,4.51
2022-12-25T09:07:12.018Z,4.54
2022-12-25T09:09:44.553Z,4.55
2022-12-25T09:12:16.840Z,4.57
2022-12-25T09:14:49.165Z,4.57
2022-12-25T09:17:21.464Z,4.60
2022-12-25T09:19:53.784Z,4.62
2022-12-25T09:22:26.112Z,4.66
2022-12-25T09:24:58.502Z,4.67
2022-12-25T09:27:31.060Z,4.67
2022-12-25T09:30:03.481Z,4.67
2022-12-25T09:32:35.858Z,4.67
2022-12-25T09:35:09.368Z,4.64
2022-12-25T09:37:41.776Z,4.64
2022-12-25T09:40:18.478Z,4.61
2022-12-25T09:42:54.569Z,4.62
2022-12-25T09:45:33.054Z,4.61
2022-12-25T09:48:06.327Z,4.64
2022-12-25T09:50:45.194Z,4.69
2022-12-25T09:53:23.124Z,4.73
2022-12-25T09:56:05.735Z,4.77
2022-12-25T09:58:38.113Z,4.80
2022-12-25T10:01:20.313Z,4.84
2022-12-25T10:04:07.816Z,4.85
2022-12-25T10:06:51.273Z,4.85
2022-12-25T10:09:38.869Z,4.87
2022-12-25T10:12:27.444Z,4.90
2022-12-25T10:15:12.318Z,4.92
2022-12-25T10:18:01.490Z,4.91
2022-12-25T10:20:43.999Z,4.91
2022-12-25T10:23:19.445Z,4.92
2022-12-25T10:25:52.948Z,4.94
2022-12-25T10:28:31.182Z,4.95
2022-12-25T10:31:24.493Z,4.98
2022-12-25T10:33:57.666Z,4.99
2022-12-25T10:36:31.778Z,5.03
2022-12-25T10:39:04.689Z,5.06
2022-12-25T10:42:04.330Z,5.06
2022-12-25T10:44:36.928Z,5.06
2022-12-25T10:47:09.559Z,5.09
2022-12-25T10:49:42.414Z,5.09
2022-12-25T10:52:24.001Z,5.12
2022-12-25T10:54:56.735Z,5.15
2022-12-25T10:57:29.898Z,5.15
2022-12-25T11:00:02.274Z,5.13
2022-12-25T11:02:41.383Z,5.14
2022-12-25T11:05:22.645Z,5.18
2022-12-25T11:07:56.173Z,5.23
2022-12-25T11:10:32.340Z,5.24
2022-12-25T11:13:06.648Z,5.26
2022-12-25T11:15:41.704Z,5.28
2022-12-25T11:18:25.844Z,5.29
2022-12-25T11:21:00.450Z,5.28
2022-12-25T11:23:34.183Z,5.28
2022-12-25T11:26:09.298Z,5.28
2022-12-25T11:28:43.871Z,5.27
2022-12-25T11:31:19.345Z,5.24
2022-12-25T11:33:56.831Z,5.21
2022-12-25T11:36:34.152Z,5.22
2022-12-25T11:39:21.673Z,5.22
2022-12-25T11:41:57.839Z,5.23
2022-12-25T11:44:43.446Z,5.25
2022-12-25T11:47:18.673Z,5.27
2022-12-25T11:50:00.321Z,5.28
2022-12-25T11:52:38.432Z,5.28
2022-12-25T11:55:21.782Z,5.26
2022-12-25T11:57:58.856Z,5.24
2022-12-25T12:00:34.301Z,5.24
2022-12-25T12:03:15.506Z,5.24
2022-12-25T12:05:53.451Z,5.22
2022-12-25T12:08:25.855Z,5.23
2022-12-25T12:11:19.570Z,5.23
2022-12-25T12:14:07.029Z,5.22
2022-12-25T12:16:39.565Z,5.21
2022-12-25T12:19:25.934Z,5.20
2022-12-25T12:22:01.138Z,5.20
2022-12-25T12:24:34.679Z,5.19
2022-12-25T12:27:19.149Z,5.19
2022-12-25T12:29:55.030Z,5.20
2022-12-25T12:32:36.617Z,5.18
2022-12-25T12:35:15.208Z,5.15
2022-12-25T12:37:50.798Z,5.14
2022-12-25T12:40:33.805Z,5.15
2022-12-25T12:43:23.541Z,5.15
2022-12-25T12:46:03.882Z,5.15
2022-12-25T12:48:43.855Z,5.13
2022-12-25T12:51:29.490Z,5.15
2022-12-25T12:54:21.704Z,5.16
2022-12-25T12:57:02.701Z,5.19
2022-12-25T12:59:43.683Z,5.21
2022-12-25T13:02:43.810Z,5.23
2022-12-25T13:05:34.139Z,5.22
2022-12-25T13:08:16.369Z,5.24
2022-12-25T13:10:51.892Z,5.26
2022-12-25T13:13:28.029Z,5.28
2022-12-25T13:16:00.526Z,5.29
2022-12-25T13:18:34.489Z,5.32
2022-12-25T13:21:08.623Z,5.34
2022-12-25T13:23:40.933Z,5.36
2022-12-25T13:26:18.576Z,5.39
2022-12-25T13:28:51.109Z,5.41
2022-12-25T13:31:25.005Z,5.44
2022-12-25T13:34:03.725Z,5.45
2022-12-25T13:36:40.657Z,5.46
2022-12-25T13:39:18.831Z,5.46
2022-12-25T13:42:10.096Z,5.45
2022-12-25T13:44:51.598Z,5.40
2022-12-25T13:47:27.374Z,5.40
2022-12-25T13:50:01.948Z,5.38
2022-12-25T13:52:38.962Z,5.37
2022-12-25T13:55:18.801Z,5.36
2022-12-25T13:57:54.961Z,5.35
2022-12-25T14:00:40.017Z,5.35
2022-12-25T14:03:21.106Z,5.35
2022-12-25T14:06:01.014Z,5.35
2022-12-25T14:08:36.278Z,5.37
2022-12-25T14:11:09.394Z,5.39
2022-12-25T14:13:46.129Z,5.43
2022-12-25T14:16:21.898Z,5.45
2022-12-25T14:18:56.374Z,5.46
2022-12-25T14:21:32.923Z,5.47
2022-12-25T14:24:05.901Z,5.46
2022-12-25T14:26:38.432Z,5.47
2022-12-25T14:29:17.569Z,5.46
2022-12-25T14:31:51.214Z,5.45
2022-12-25T14:34:28.063Z,5.45
2022-12-25T14:37:01.353Z,5.44
2022-12-25T14:39:38.155Z,5.45
2022-12-25T14:42:22.359Z,5.46
2022-12-25T14:45:06.463Z,5.46
2022-12-25T14:47:53.622Z,5.46
2022-12-25T14:50:32.745Z,5.47
2022-12-25T14:53:05.701Z,5.48
2022-12-25T14:55:38.482Z,5.48
2022-12-25T14:58:22.533Z,5.49
2022-12-25T15:00:59.624Z,5.50
2022-12-25T15:03:36.657Z,5.50
2022-12-25T15:06:19.951Z,5.48
2022-12-25T15:09:01.022Z,5.48
2022-12-25T15:11:33.761Z,5.49
2022-12-25T15:14:06.078Z,5.49
2022-12-25T15:16:43.117Z,5.48
2022-12-25T15:19:25.244Z,5.49
2022-12-25T15:21:59.842Z,5.49
2022-12-25T15:24:33.158Z,5.48
2022-12-25T15:27:05.612Z,5.48
2022-12-25T15:30:08.748Z,5.48
2022-12-25T15:32:30.390Z,5.46
2022-12-25T15:35:02.822Z,5.46
2022-12-25T15:37:35.129Z,5.46
2022-12-25T15:40:10.713Z,5.48
2022-12-25T15:42:44.778Z,5.50
2022-12-25T15:45:22.453Z,5.53
2022-12-25T15:47:55.187Z,5.53
2022-12-25T15:50:27.685Z,5.55
2022-12-25T15:53:00.139Z,5.53
2022-12-25T15:55:32.663Z,5.51
2022-12-25T15:58:05.090Z,5.48
2022-12-25T16:00:37.515Z,5.48
2022-12-25T16:03:10.342Z,5.46
2022-12-25T16:05:42.949Z,5.46
2022-12-25T16:08:15.305Z,5.47
2022-12-25T16:10:47.796Z,5.46
2022-12-25T16:13:20.145Z,5.46
2022-12-25T16:15:52.646Z,5.45
2022-12-25T16:18:25.123Z,5.44
2022-12-25T16:20:59.138Z,5.43
2022-12-25T16:23:31.749Z,5.43
2022-12-25T16:26:04.137Z,5.44
2022-12-25T16:28:36.456Z,5.43
2022-12-25T16:31:09.282Z,5.42
2022-12-25T16:33:41.714Z,5.44
2022-12-25T16:36:14.087Z,5.45
2022-12-25T16:38:46.434Z,5.47
2022-12-25T16:41:18.788Z,5.46
2022-12-25T16:43:51.327Z,5.47
2022-12-25T16:46:24.668Z,5.45
2022-12-25T16:48:57.971Z,5.44
2022-12-25T16:51:30.218Z,5.41
2022-12-25T16:54:02.695Z,5.38
2022-12-25T16:56:36.809Z,5.36
2022-12-25T16:59:09.155Z,5.35
2022-12-25T17:01:43.430Z,5.34
2022-12-25T17:04:15.976Z,5.34
2022-12-25T17:06:49.364Z,5.32
2022-12-25T17:09:21.721Z,5.33
2022-12-25T17:11:54.106Z,5.35
2022-12-25T17:14:26.492Z,5.35
2022-12-25T17:16:58.960Z,5.36
2022-12-25T17:19:31.666Z,5.37
2022-12-25T17:22:04.065Z,5.38
2022-12-25T17:24:37.494Z,5.42
2022-12-25T17:27:10.506Z,5.45
2022-12-25T17:29:44.000Z,5.46
2022-12-25T17:32:16.407Z,5.46
2022-12-25T17:34:49.853Z,5.45
2022-12-25T17:37:22.225Z,5.44
2022-12-25T17:39:54.656Z,5.45
2022-12-25T17:42:27.006Z,5.47
2022-12-25T17:44:59.327Z,5.49
2022-12-25T17:47:32.416Z,5.51
2022-12-25T17:50:05.320Z,5.53
2022-12-25T17:52:37.672Z,5.54
2022-12-25T17:55:11.666Z,5.56
2022-12-25T17:57:44.002Z,5.57
2022-12-25T18:00:18.140Z,5.60
2022-12-25T18:02:50.793Z,5.62
2022-12-25T18:05:23.577Z,5.62
2022-12-25T18:07:55.874Z,5.63
2022-12-25T18:10:28.280Z,5.63
2022-12-25T18:13:00.702Z,5.62
2022-12-25T18:15:33.173Z,5.62
2022-12-25T18:18:05.847Z,5.61
2022-12-25T18:20:40.443Z,5.60
2022-12-25T18:23:13.089Z,5.60
2022-12-25T18:25:45.679Z,5.60
2022-12-25T18:28:18.393Z,5.59
2022-12-25T18:30:50.763Z,5.59
2022-12-25T18:33:23.351Z,5.61
2022-12-25T18:36:01.935Z,5.62
2022-12-25T18:38:34.321Z,5.62
2022-12-25T18:41:09.713Z,5.62
2022-12-25T18:43:53.920Z,5.61
2022-12-25T18:46:28.788Z,5.59
2022-12-25T18:49:01.214Z,5.58
2022-12-25T18:51:37.123Z,5.57
2022-12-25T18:54:09.705Z,5.58
2022-12-25T18:56:42.115Z,5.57
2022-12-25T18:59:14.823Z,5.58
2022-12-25T19:01:47.370Z,5.58
2022-12-25T19:04:19.959Z,5.59
2022-12-25T19:06:53.478Z,5.60
2022-12-25T19:09:26.806Z,5.62
2022-12-25T19:11:59.172Z,5.62
2022-12-25T19:14:31.701Z,5.63
2022-12-25T19:17:20.506Z,5.63
2022-12-25T19:19:52.931Z,5.61
2022-12-25T19:22:25.337Z,5.61
2022-12-25T19:24:57.732Z,5.60
2022-12-25T19:27:30.239Z,5.60
2022-12-25T19:30:02.631Z,5.61
2022-12-25T19:32:35.157Z,5.61
2022-12-25T19:35:08.825Z,5.62
2022-12-25T19:37:41.107Z,5.62
2022-12-25T19:40:14.653Z,5.61
2022-12-25T19:42:46.975Z,5.62
2022-12-25T19:45:19.533Z,5.59
2022-12-25T19:47:51.953Z,5.57
2022-12-25T19:50:28.470Z,5.56
2022-12-25T19:53:00.845Z,5.55
2022-12-25T19:55:34.421Z,5.55
2022-12-25T19:58:06.770Z,5.52
2022-12-25T20:00:40.536Z,5.49
2022-12-25T20:03:13.032Z,5.49
2022-12-25T20:05:47.036Z,5.49
2022-12-25T20:08:19.777Z,5.50
2022-12-25T20:10:52.335Z,5.52
2022-12-25T20:13:24.799Z,5.55
2022-12-25T20:16:02.501Z,5.59
2022-12-25T20:18:34.927Z,5.59
2022-12-25T20:21:10.433Z,5.60
2022-12-25T20:23:43.350Z,5.59
2022-12-25T20:26:17.494Z,5.60
2022-12-25T20:28:49.915Z,5.60
2022-12-25T20:31:24.409Z,5.58
2022-12-25T20:33:57.736Z,5.58
2022-12-25T20:36:36.416Z,5.59
2022-12-25T20:39:11.747Z,5.60
2022-12-25T20:41:44.152Z,5.58
2022-12-25T20:44:16.468Z,5.59
2022-12-25T20:46:48.837Z,5.59
2022-12-25T20:49:21.239Z,5.59
2022-12-25T20:51:54.497Z,5.58
2022-12-25T20:54:28.827Z,5.57
2022-12-25T20:57:01.206Z,5.56
2022-12-25T20:59:37.429Z,5.56
2022-12-25T21:02:35.146Z,5.53
2022-12-25T21:05:05.104Z,5.52
2022-12-25T21:07:37.418Z,5.52
2022-12-25T21:10:11.815Z,5.50
2022-12-25T21:12:44.186Z,5.49
2022-12-25T21:15:18.097Z,5.48
2022-12-25T21:17:50.469Z,5.48
2022-12-25T21:20:22.898Z,5.48
2022-12-25T21:22:55.241Z,5.48
2022-12-25T21:25:28.006Z,5.47
2022-12-25T21:28:00.394Z,5.49
2022-12-25T21:30:32.921Z,5.50
2022-12-25T21:33:23.065Z,5.51
2022-12-25T21:35:55.488Z,5.53
2022-12-25T21:38:27.858Z,5.54
2022-12-25T21:41:05.539Z,5.54
2022-12-25T21:43:39.286Z,5.56
2022-12-25T21:46:13.725Z,5.59
2022-12-25T21:48:46.755Z,5.61
2022-12-25T21:51:39.160Z,5.61
2022-12-25T21:54:12.358Z,5.61
2022-12-25T21:56:47.281Z,5.61
2022-12-25T21:59:21.760Z,5.64
2022-12-25T22:01:54.792Z,5.65
2022-12-25T22:04:27.735Z,5.62
2022-12-25T22:07:18.695Z,5.64
2022-12-25T22:09:52.696Z,5.66
2022-12-25T22:12:42.983Z,5.67
2022-12-25T22:15:15.585Z,5.68
2022-12-25T22:18:05.801Z,5.67
2022-12-25T22:20:41.793Z,5.69
2022-12-25T22:23:14.540Z,5.70
2022-12-25T22:25:46.914Z,5.70
2022-12-25T22:28:19.539Z,5.71
2022-12-25T22:30:51.917Z,5.73
2022-12-25T22:33:27.382Z,5.71
2022-12-25T22:36:05.319Z,5.67
2022-12-25T22:38:37.811Z,5.64
2022-12-25T22:41:10.742Z,5.61
2022-12-25T22:44:15.765Z,5.62
2022-12-25T22:46:35.915Z,5.62
2022-12-25T22:49:08.395Z,5.65
2022-12-25T22:51:40.675Z,5.67
2022-12-25T22:54:14.141Z,5.66
2022-12-25T22:56:49.387Z,5.67
2022-12-25T22:59:20.955Z,5.70
2022-12-25T23:01:53.792Z,5.70
2022-12-25T23:04:26.426Z,5.68
2022-12-25T23:06:59.052Z,5.67
2022-12-25T23:09:31.706Z,5.66
2022-12-25T23:12:04.260Z,5.66
2022-12-25T23:14:42.730Z,5.67
2022-12-25T23:17:29.593Z,5.67
2022-12-25T23:20:21.008Z,5.65
2022-12-25T23:23:11.193Z,5.64
2022-12-25T23:26:01.080Z,5.63
2022-12-25T23:28:51.020Z,5.63
2022-12-25T23:31:27.484Z,5.61
2022-12-25T23:34:00.671Z,5.60
2022-12-25T23:36:33.251Z,5.62
2022-12-25T23:39:10.007Z,5.61
2022-12-25T23:41:44.327Z,5.61
2022-12-25T23:44:16.952Z,5.64
2022-12-25T23:46:53.295Z,5.71
2022-12-25T23:49:26.980Z,5.80
2022-12-25T23:51:59.776Z,5.96
2022-12-25T23:54:33.561Z,6.00
2022-12-25T23:57:05.992Z,5.98
2022-12-25T23:59:38.434Z,5.93
